Time;durP1;ratioP1;P1;durP2;ratioP2;P2;SDS_P1;SDS_P2;PMS_P1;PMS_P2;Temp;Humidity;BMP_temperature;BMP_pressure;BME280_temperature;BME280_humidity;BME280_pressure;Samples;Min_cycle;Max_cycle;Signal;HPM_P1;HPM_P2
2023/03/27 00:03:12;;;;;;;5.38;1.73;;;;;;;6.18;100.00;98941.78;12176854;19;20523;-81
2023/03/27 00:07:15;;;;;;;3.28;1.65;;;;;;;6.16;100.00;98950.25;12198585;19;20007;-81
2023/03/27 00:11:17;;;;;;;;;;;;;;;6.13;100.00;98957.03;12217449;19;20431;-82
2023/03/27 00:15:20;;;;;;;4.10;1.25;;;;;;;6.04;100.00;98972.16;12189199;19;20389;-82
2023/03/27 00:19:23;;;;;;;4.13;1.52;;;;;;;6.02;100.00;98981.66;12216127;19;20021;-81
2023/03/27 00:23:28;;;;;;;5.25;1.42;;;;;;;5.99;100.00;98984.88;12190634;19;20042;-82
2023/03/27 00:27:30;;;;;;;5.38;1.73;;;;;;;5.90;100.00;99001.59;12219351;19;20007;-83
2023/03/27 00:31:32;;;;;;;4.95;1.88;;;;;;;5.80;100.00;99012.31;12208256;19;20007;-82
2023/03/27 00:35:34;;;;;;;6.85;2.40;;;;;;;5.65;100.00;99020.16;12183604;19;20006;-82
2023/03/27 00:39:35;;;;;;;5.47;1.63;;;;;;;5.60;100.00;99017.31;12206966;19;20011;-81
2023/03/27 00:43:42;;;;;;;7.43;2.60;;;;;;;5.42;100.00;99035.47;12208890;19;20860;-80
2023/03/27 00:47:55;;;;;;;8.40;3.28;;;;;;;5.30;100.00;99031.06;12189723;19;20025;-82
2023/03/27 00:51:59;;;;;;;12.90;4.50;;;;;;;5.16;100.00;99044.91;12206336;19;20010;-81
2023/03/27 00:56:04;;;;;;;12.95;3.42;;;;;;;4.98;100.00;99059.44;12206630;19;20023;-82
2023/03/27 01:00:12;;;;;;;7.47;2.65;;;;;;;5.00;100.00;99061.97;12183269;19;20035;-82
2023/03/27 01:04:20;;;;;;;17.60;3.40;;;;;;;5.00;100.00;99072.88;12201569;19;20033;-81
2023/03/27 01:08:23;;;;;;;12.35;3.50;;;;;;;5.02;100.00;99079.75;12201663;19;20002;-82
2023/03/27 01:12:58;;;;;;;12.25;3.42;;;;;;;5.07;100.00;99086.44;12206152;19;20097;-81
2023/03/27 01:17:24;;;;;;;10.65;3.17;;;;;;;5.07;100.00;99095.47;12203885;19;20024;-81
2023/03/27 01:21:40;;;;;;;7.88;3.05;;;;;;;5.09;100.00;99104.25;12180796;19;20122;-81
2023/03/27 01:26:06;;;;;;;10.35;3.30;;;;;;;5.02;100.00;99112.53;12204022;19;20007;-83
2023/03/27 01:30:31;;;;;;;7.78;2.53;;;;;;;4.93;100.00;99116.66;12182608;19;20003;-81
2023/03/27 01:34:56;;;;;;;9.43;2.42;;;;;;;4.87;100.00;99136.66;12199869;19;20010;-81
2023/03/27 01:39:21;;;;;;;9.85;2.85;;;;;;;4.78;100.00;99146.25;12184257;19;20010;-81
2023/03/27 01:43:32;;;;;;;7.38;2.95;;;;;;;4.68;100.00;99165.88;12206020;19;20007;-83
2023/03/27 01:47:43;;;;;;;11.65;2.40;;;;;;;4.56;100.00;99174.00;12178836;19;20011;-83
2023/03/27 01:51:57;;;;;;;8.85;2.15;;;;;;;4.43;100.00;99193.25;12202395;19;20434;-81
2023/03/27 01:56:12;;;;;;;6.57;1.80;;;;;;;4.31;100.00;99209.50;12202840;19;20002;-82
2023/03/27 02:00:16;;;;;;;14.15;2.80;;;;;;;4.11;100.00;99201.50;12179644;19;20006;-82
2023/03/27 02:04:26;;;;;;;12.13;1.98;;;;;;;3.92;100.00;99213.38;12203449;19;20023;-82
2023/03/27 02:08:37;;;;;;;6.95;2.00;;;;;;;3.80;100.00;99218.69;12185268;19;20079;-82
2023/03/27 02:12:53;;;;;;;8.27;2.38;;;;;;;3.67;100.00;99228.88;12201611;19;20017;-81
2023/03/27 02:17:01;;;;;;;10.60;2.85;;;;;;;3.53;100.00;99233.56;12207151;19;20015;-82
2023/03/27 02:21:03;;;;;;;5.70;2.40;;;;;;;3.36;100.00;99242.25;12184630;19;20006;-82
2023/03/27 02:25:28;;;;;;;7.30;1.38;;;;;;;3.45;100.00;99255.59;12210614;19;20014;-82
2023/03/27 02:29:50;;;;;;;8.40;2.22;;;;;;;3.40;100.00;99267.16;12198987;19;20055;-80
2023/03/27 02:34:13;;;;;;;3.22;1.45;;;;;;;3.24;100.00;99273.06;12264474;19;20024;-82
2023/03/27 02:38:27;;;;;;;6.50;1.55;;;;;;;3.14;100.00;99287.97;12252641;19;21004;-82
2023/03/27 02:43:02;;;;;;;5.65;1.55;;;;;;;3.04;100.00;99292.22;12192506;19;20028;-82
2023/03/27 02:47:30;;;;;;;3.25;1.30;;;;;;;2.90;100.00;99300.41;12212119;19;20011;-84
2023/03/27 02:51:51;;;;;;;7.88;1.80;;;;;;;2.73;100.00;99324.50;12187125;19;20007;-82
2023/03/27 02:55:57;;;;;;;4.43;1.23;;;;;;;2.60;100.00;99334.56;12207772;19;20007;-83
2023/03/27 03:00:06;;;;;;;5.53;1.75;;;;;;;2.56;100.00;99344.16;12193317;19;20092;-81
2023/03/27 03:04:18;;;;;;;11.32;2.70;;;;;;;2.44;100.00;99352.13;12244298;19;20006;-79
2023/03/27 03:08:37;;;;;;;9.18;2.00;;;;;;;2.27;100.00;99363.41;12248630;19;20007;-81
2023/03/27 03:12:42;;;;;;;5.63;2.10;;;;;;;2.18;100.00;99372.81;12242770;19;20007;-82
2023/03/27 03:16:44;;;;;;;6.18;1.33;;;;;;;2.12;100.00;99375.53;12205200;19;20039;-81
2023/03/27 03:20:46;;;;;;;5.70;1.57;;;;;;;2.05;100.00;99381.78;12176187;19;20116;-81
2023/03/27 03:24:49;;;;;;;6.38;1.90;;;;;;;2.05;100.00;99389.94;12199723;19;20002;-82
2023/03/27 03:28:52;;;;;;;3.97;1.63;;;;;;;1.98;100.00;99408.06;12200084;19;20023;-84
2023/03/27 03:33:03;;;;;;;9.15;2.20;;;;;;;1.91;100.00;99419.97;12179676;19;19998;-82
2023/03/27 03:37:09;;;;;;;7.38;1.90;;;;;;;1.88;100.00;99429.38;12196216;19;20006;-81
2023/03/27 03:41:11;;;;;;;4.43;1.27;;;;;;;1.79;100.00;99436.84;12196966;19;20472;-81
2023/03/27 03:45:14;;;;;;;6.55;1.85;;;;;;;1.72;100.00;99446.84;12173844;19;20031;-86
2023/03/27 03:49:17;;;;;;;8.65;1.75;;;;;;;1.74;100.00;99446.66;12195600;19;20083;-81
2023/03/27 03:53:20;;;;;;;6.65;1.48;;;;;;;1.69;100.00;99454.56;12194432;19;20018;-81
2023/03/27 03:57:22;;;;;;;6.65;1.83;;;;;;;1.67;100.00;99462.91;12177112;19;19999;-82
2023/03/27 04:01:37;;;;;;;4.15;1.67;;;;;;;1.66;100.00;99469.38;12198933;19;20003;-81
2023/03/27 04:05:41;;;;;;;6.07;1.35;;;;;;;1.66;100.00;99492.97;12177185;19;20013;-82
2023/03/27 04:09:43;;;;;;;9.57;1.65;;;;;;;1.66;100.00;99499.25;12197144;19;20003;-82
2023/03/27 04:13:58;;;;;;;14.57;1.80;;;;;;;1.60;100.00;99516.34;12195193;19;20082;-80
2023/03/27 04:18:09;;;;;;;12.07;2.00;;;;;;;1.57;100.00;99525.72;12167108;19;20480;-79
2023/03/27 04:22:16;;;;;;;5.05;1.80;;;;;;;1.53;100.00;99534.47;12167475;19;20105;-80
2023/03/27 04:26:17;;;;;;;6.53;1.65;;;;;;;1.49;100.00;99546.78;12195135;19;20007;-80
2023/03/27 04:30:42;;;;;;;6.07;1.70;;;;;;;1.42;100.00;99556.75;12174403;19;20031;-80
2023/03/27 04:34:45;;;;;;;6.07;1.52;;;;;;;1.35;100.00;99564.84;12200910;19;20409;-80
2023/03/27 04:39:15;;;;;;;5.70;1.60;;;;;;;1.26;100.00;99569.56;12175589;19;20024;-81
2023/03/27 04:43:17;;;;;;;8.85;1.70;;;;;;;1.24;100.00;99570.78;12195259;19;20514;-81
2023/03/27 04:47:20;;;;;;;5.22;1.30;;;;;;;1.23;100.00;99591.66;12199321;19;20010;-80
2023/03/27 04:51:25;;;;;;;7.90;2.10;;;;;;;1.22;100.00;99595.44;12178740;19;20026;-80
2023/03/27 04:55:29;;;;;;;6.10;1.65;;;;;;;1.14;100.00;99600.97;12210858;19;20087;-81
2023/03/27 04:59:32;;;;;;;10.43;1.77;;;;;;;1.09;100.00;99614.28;12187529;19;20020;-81
2023/03/27 05:03:52;;;;;;;6.53;1.90;;;;;;;1.05;100.00;99630.13;12208721;19;20032;-81
2023/03/27 05:08:08;;;;;;;5.05;1.48;;;;;;;1.01;100.00;99630.69;12207283;19;20007;-82
2023/03/27 05:12:10;;;;;;;7.65;3.03;;;;;;;1.01;100.00;99630.69;12187597;19;20011;-81
2023/03/27 05:16:23;;;;;;;11.02;2.67;;;;;;;0.99;100.00;99651.75;12203776;19;20013;-81
2023/03/27 05:20:28;;;;;;;7.55;1.88;;;;;;;0.97;100.00;99660.06;12186901;19;20007;-81
2023/03/27 05:24:32;;;;;;;5.78;1.60;;;;;;;0.99;100.00;99670.75;12212765;19;20010;-81
2023/03/27 05:28:35;;;;;;;6.07;1.85;;;;;;;0.99;100.00;99679.72;12208514;19;20085;-80
2023/03/27 05:32:37;;;;;;;9.23;1.80;;;;;;;1.02;100.00;99692.06;12176705;19;20010;-79
2023/03/27 05:36:49;;;;;;;2.83;1.40;;;;;;;1.06;100.00;99699.63;12202378;19;20056;-80
2023/03/27 05:40:52;;;;;;;7.03;1.75;;;;;;;1.08;100.00;99705.72;12203302;19;20010;-80
2023/03/27 05:44:55;;;;;;;7.90;1.67;;;;;;;1.10;100.00;99708.22;12181746;19;20006;-80
2023/03/27 05:48:58;;;;;;;3.90;2.10;;;;;;;1.15;100.00;99722.06;12199730;19;20009;-78
2023/03/27 05:53:07;;;;;;;8.73;1.50;;;;;;;1.24;100.00;99720.91;12227792;19;20007;-78
2023/03/27 05:57:12;;;;;;;7.47;1.95;;;;;;;1.30;100.00;99732.88;12191636;19;20043;-79
2023/03/27 06:01:17;;;;;;;7.32;1.60;;;;;;;1.34;100.00;99743.19;12203097;19;20366;-79
2023/03/27 06:05:20;;;;;;;4.97;1.35;;;;;;;1.36;100.00;99751.97;12204515;19;20050;-81
2023/03/27 06:09:24;;;;;;;5.65;1.20;;;;;;;1.45;100.00;99758.13;12181209;19;20007;-79
2023/03/27 06:13:46;;;;;;;6.03;1.48;;;;;;;1.52;100.00;99767.19;12199668;19;20006;-79
2023/03/27 06:17:52;;;;;;;5.00;1.30;;;;;;;1.58;100.00;99777.28;12182419;19;20040;-80
2023/03/27 06:21:54;;;;;;;4.53;2.10;;;;;;;1.69;100.00;99794.09;12202149;19;20091;-80
2023/03/27 06:25:57;;;;;;;5.57;1.55;;;;;;;1.77;100.00;99807.56;12201544;19;20006;-80
2023/03/27 06:30:01;;;;;;;4.95;1.70;;;;;;;1.87;100.00;99813.50;12178114;19;20721;-81
2023/03/27 06:34:04;;;;;;;12.45;1.77;;;;;;;2.00;100.00;99819.09;12192271;19;20010;-81
2023/03/27 06:38:22;;;;;;;8.20;1.63;;;;;;;2.16;100.00;99831.56;12196890;19;20348;-79
2023/03/27 06:42:24;;;;;;;2.72;1.45;;;;;;;2.22;100.00;99847.09;12179820;19;20017;-83
2023/03/27 06:46:47;;;;;;;8.13;1.60;;;;;;;2.34;100.00;99839.25;12199797;19;20021;-80
2023/03/27 06:50:55;;;;;;;4.00;1.20;;;;;;;2.50;100.00;99854.47;12177283;19;20018;-82
2023/03/27 06:54:58;;;;;;;7.93;1.75;;;;;;;2.60;100.00;99863.13;12196854;19;20035;-84
2023/03/27 06:59:00;;;;;;;10.60;1.90;;;;;;;2.77;100.00;99862.81;12198671;19;20010;-81
2023/03/27 07:03:04;;;;;;;4.93;1.70;;;;;;;2.89;100.00;99867.53;12181170;19;20452;-81
2023/03/27 07:07:30;;;;;;;7.57;1.30;;;;;;;3.06;100.00;99878.94;12203554;19;20099;-82
2023/03/27 07:11:32;;;;;;;6.18;1.52;;;;;;;3.20;100.00;99897.06;12175353;19;20006;-83
2023/03/27 07:15:41;;;;;;;7.40;1.40;;;;;;;3.32;95.95;99899.22;12198579;19;20011;-81
2023/03/27 07:19:43;;;;;;;7.28;1.30;;;;;;;3.46;95.17;99911.88;12203640;19;20030;-82
2023/03/27 07:23:47;;;;;;;9.98;2.90;;;;;;;3.61;98.02;99914.47;12179076;19;21331;-82
2023/03/27 07:27:59;;;;;;;9.77;1.35;;;;;;;3.79;93.24;99927.56;12204633;19;20029;-82
2023/03/27 07:32:03;;;;;;;5.72;1.23;;;;;;;3.91;91.70;99938.72;12245894;19;19994;-78
2023/03/27 07:36:17;;;;;;;4.95;1.15;;;;;;;3.98;88.51;99948.59;12219733;19;20025;-80
2023/03/27 07:40:26;;;;;;;7.80;1.58;;;;;;;4.07;87.23;99955.56;12206004;19;20015;-83
2023/03/27 07:45:03;;;;;;;10.52;1.48;;;;;;;4.15;87.60;99968.19;12182822;19;20031;-82
2023/03/27 07:49:09;;;;;;;10.60;1.85;;;;;;;4.27;84.40;99973.88;12200319;19;20528;-83
2023/03/27 07:53:11;;;;;;;4.87;1.43;;;;;;;4.29;86.63;99978.09;12199427;19;20472;-85
2023/03/27 07:57:48;;;;;;;5.05;1.50;;;;;;;4.58;84.82;99976.09;12178942;19;20074;-82
2023/03/27 08:02:04;;;;;;;9.30;2.03;;;;;;;4.63;83.26;99972.72;12202831;19;20007;-82
2023/03/27 08:06:11;;;;;;;8.80;1.45;;;;;;;4.69;84.53;99980.91;12179466;19;20015;-83
2023/03/27 08:10:15;;;;;;;8.85;1.67;;;;;;;4.91;82.16;99988.94;12200898;19;20019;-82
2023/03/27 08:14:29;;;;;;;6.20;1.63;;;;;;;5.00;78.30;99998.63;12191414;19;20015;-84
2023/03/27 08:18:36;;;;;;;3.20;1.20;;;;;;;5.09;79.52;99994.63;12251354;19;20409;-80
2023/03/27 08:22:41;;;;;;;7.22;1.70;;;;;;;5.33;77.68;100000.50;12250539;19;20035;-81
2023/03/27 08:27:03;;;;;;;5.82;1.52;;;;;;;5.45;76.92;100005.13;12233360;19;20028;-81
2023/03/27 08:31:13;;;;;;;7.78;1.48;;;;;;;5.65;77.35;100007.84;12259227;19;20086;-79
2023/03/27 08:35:18;;;;;;;6.22;2.08;;;;;;;5.99;74.98;100010.50;12233110;19;20484;-80
2023/03/27 08:39:22;;;;;;;4.30;1.20;;;;;;;6.39;68.80;100013.94;12195271;19;20010;-85
2023/03/27 08:43:43;;;;;;;2.60;1.10;;;;;;;6.48;68.44;100018.09;12206763;19;20025;-81
2023/03/27 08:47:57;;;;;;;3.85;1.60;;;;;;;6.72;69.68;100019.25;12190079;19;20043;-81
2023/03/27 08:52:24;;;;;;;8.18;1.27;;;;;;;7.18;65.33;100031.78;12208823;19;20013;-82
2023/03/27 08:56:27;;;;;;;8.30;1.23;;;;;;;7.21;65.47;100031.34;12185794;19;20010;-82
2023/03/27 09:00:39;;;;;;;6.57;1.90;;;;;;;7.03;64.76;100036.75;12207253;19;20610;-80
2023/03/27 09:05:07;;;;;;;4.85;1.10;;;;;;;6.94;67.56;100035.34;12209578;19;20014;-80
2023/03/27 09:09:34;;;;;;;6.47;1.80;;;;;;;7.10;65.15;100045.75;12191648;19;20050;-84
2023/03/27 09:13:47;;;;;;;5.47;1.23;;;;;;;7.04;64.28;100050.22;12216970;19;20460;-83
2023/03/27 09:18:00;;;;;;;4.78;0.85;;;;;;;6.91;61.28;100052.22;12232558;19;20030;-80
2023/03/27 09:22:12;;;;;;;7.63;1.55;;;;;;;6.84;65.72;100039.41;12275885;19;20007;-78
2023/03/27 09:26:35;;;;;;;4.50;1.20;;;;;;;6.93;63.76;100039.13;12221736;19;20010;-81
2023/03/27 09:30:40;;;;;;;3.72;0.90;;;;;;;6.97;64.08;100040.38;12212463;19;20585;-82
2023/03/27 09:34:48;;;;;;;5.43;1.30;;;;;;;7.21;65.03;100036.81;12203879;19;20014;-80
2023/03/27 09:39:00;;;;;;;2.53;1.03;;;;;;;7.41;65.20;100036.69;12181582;19;20007;-82
2023/03/27 09:43:13;;;;;;;5.07;1.17;;;;;;;7.18;64.43;100048.22;12206456;19;19999;-81
2023/03/27 09:47:52;;;;;;;5.37;1.47;;;;;;;7.71;65.88;100044.22;12208093;19;20011;-81
2023/03/27 09:51:57;;;;;;;7.75;1.17;;;;;;;8.57;58.98;100042.47;12102448;19;2004500;-84
2023/03/27 09:56:17;;;;;;;6.82;1.73;;;;;;;8.53;61.16;100039.31;12214204;19;20014;-82
2023/03/27 10:00:30;;;;;;;7.78;1.20;;;;;;;8.67;62.33;100037.22;12187739;19;20011;-81
2023/03/27 10:04:33;;;;;;;5.05;1.55;;;;;;;8.72;61.51;100039.31;12216083;19;20029;-81
2023/03/27 10:08:44;;;;;;;5.32;1.23;;;;;;;8.51;58.82;100035.97;12192687;19;20006;-84
2023/03/27 10:12:56;;;;;;;3.28;0.80;;;;;;;8.34;56.66;100038.47;12229754;19;21523;-83
2023/03/27 10:17:21;;;;;;;3.92;1.00;;;;;;;8.33;56.16;100046.91;12216104;19;20010;-80
2023/03/27 10:21:37;;;;;;;4.57;0.80;;;;;;;8.59;53.18;100049.38;12197429;19;20112;-82
2023/03/27 10:25:51;;;;;;;6.70;0.90;;;;;;;8.61;51.75;100047.25;12213890;19;20032;-82
2023/03/27 10:29:59;;;;;;;;;;;;;;;8.83;53.30;100054.97;12193078;19;20037;-82
2023/03/27 10:34:04;;;;;;;3.88;1.02;;;;;;;8.87;50.86;100065.28;12213086;19;20472;-81
2023/03/27 10:38:31;;;;;;;4.53;1.23;;;;;;;8.61;51.54;100069.22;12191568;19;20031;-82
2023/03/27 10:42:40;;;;;;;4.82;1.15;;;;;;;8.30;58.69;100072.94;12239584;19;20011;-83
2023/03/27 10:46:45;;;;;;;6.97;1.80;;;;;;;8.15;63.84;100080.69;12249555;19;19998;-81
2023/03/27 10:50:55;;;;;;;5.13;1.20;;;;;;;8.04;67.52;100081.47;12224938;19;20009;-81
2023/03/27 10:55:50;;;;;;;4.95;0.93;;;;;;;7.73;65.98;100107.91;12242505;19;20042;-85
2023/03/27 11:00:00;;;;;;;1.15;0.50;;;;;;;7.21;68.85;100113.56;12213551;19;20014;-79
2023/03/27 11:04:40;;;;;;;3.33;0.65;;;;;;;7.25;71.29;100131.25;12241299;19;20472;-80
2023/03/27 11:08:47;;;;;;;2.72;0.70;;;;;;;7.61;71.51;100129.72;12224379;19;20030;-80
2023/03/27 11:13:15;;;;;;;1.70;0.60;;;;;;;7.49;73.11;100124.13;12238134;19;20006;-82
2023/03/27 11:17:24;;;;;;;1.38;0.70;;;;;;;7.66;73.13;100110.72;12217808;19;20011;-81
2023/03/27 11:21:56;;;;;;;2.80;0.60;;;;;;;7.96;68.20;100121.84;12194226;19;20013;-81
2023/03/27 11:26:11;;;;;;;1.65;0.60;;;;;;;8.39;67.50;100120.19;12234636;19;20013;-79
2023/03/27 11:30:35;;;;;;;2.72;0.80;;;;;;;8.30;66.73;100118.75;12202037;19;20027;-80
2023/03/27 11:34:46;;;;;;;1.77;0.80;;;;;;;8.29;68.25;100122.59;12218608;19;20073;-83
2023/03/27 11:39:14;;;;;;;2.70;0.80;;;;;;;8.51;70.15;100121.13;12196178;19;20014;-82
2023/03/27 11:43:21;;;;;;;4.60;0.82;;;;;;;8.74;67.26;100116.81;12216719;19;20398;-82
2023/03/27 11:47:38;;;;;;;2.40;1.00;;;;;;;8.81;65.73;100106.59;12221288;19;20039;-81
2023/03/27 11:52:12;;;;;;;5.72;1.13;;;;;;;8.95;63.77;100118.25;12207786;19;20002;-82
2023/03/27 11:56:29;;;;;;;2.78;1.60;;;;;;;9.78;62.74;100112.75;12224128;19;20932;-82
2023/03/27 12:01:06;;;;;;;2.17;1.00;;;;;;;10.91;54.87;100101.53;12191524;19;20074;-82
2023/03/27 12:05:19;;;;;;;2.65;0.82;;;;;;;10.83;52.21;100116.56;12225144;19;20376;-82
2023/03/27 12:09:55;;;;;;;2.25;1.00;;;;;;;11.73;46.29;100106.66;12193137;19;20007;-83
2023/03/27 12:14:41;;;;;;;3.90;0.75;;;;;;;10.92;44.32;100123.34;12194995;19;20009;-81
2023/03/27 12:19:01;;;;;;;2.33;1.00;;;;;;;9.69;50.10;100140.84;12225057;19;20010;-86
2023/03/27 12:23:36;;;;;;;4.35;1.20;;;;;;;9.13;54.65;100134.69;12223835;19;20106;-86
2023/03/27 12:28:02;;;;;;;2.17;1.13;;;;;;;8.96;58.04;100134.50;12123200;19;2004690;-81
2023/03/27 12:32:54;;;;;;;3.30;1.15;;;;;;;8.92;58.44;100141.53;12252351;19;20007;-82
2023/03/27 12:37:02;;;;;;;2.58;0.90;;;;;;;9.49;52.91;100139.28;12125804;19;2004305;-82
2023/03/27 12:41:18;;;;;;;1.88;1.33;;;;;;;10.94;45.98;100136.88;12206167;19;20015;-83
2023/03/27 12:45:33;;;;;;;4.82;1.20;;;;;;;11.36;43.15;100131.94;12191207;19;20025;-85
2023/03/27 12:49:59;;;;;;;2.42;0.95;;;;;;;11.93;41.98;100127.41;12210508;19;20359;-84
2023/03/27 12:54:24;;;;;;;2.00;1.00;;;;;;;12.82;42.29;100140.34;12193326;19;20010;-84
2023/03/27 12:58:33;;;;;;;4.22;1.67;;;;;;;13.67;38.68;100141.63;12212663;19;20010;-84
2023/03/27 13:03:25;;;;;;;3.42;1.13;;;;;;;13.47;40.57;100130.34;12190154;19;20027;-84
2023/03/27 13:07:47;;;;;;;1.73;0.90;;;;;;;11.97;43.19;100159.81;12204912;19;20039;-84
2023/03/27 13:12:16;;;;;;;1.98;0.93;;;;;;;10.80;48.72;100158.41;12187398;19;20002;-83
2023/03/27 13:16:24;;;;;;;3.80;0.80;;;;;;;10.17;51.53;100167.38;12239096;19;20021;-82
2023/03/27 13:20:44;;;;;;;2.30;0.70;;;;;;;9.76;54.55;100167.22;12193557;19;20006;-82
2023/03/27 13:24:57;;;;;;;2.97;1.00;;;;;;;9.82;52.86;100165.44;12209873;19;20010;-79
2023/03/27 13:29:13;;;;;;;1.98;0.63;;;;;;;9.53;52.27;100156.97;12210687;19;20017;-85
2023/03/27 13:33:36;;;;;;;0.93;0.60;;;;;;;10.08;48.48;100155.88;12191562;19;20332;-81
2023/03/27 13:37:47;;;;;;;1.30;0.90;;;;;;;10.87;46.86;100159.09;12209910;19;20734;-83
2023/03/27 13:41:55;;;;;;;1.73;0.60;;;;;;;10.88;42.05;100166.25;12186199;19;20011;-78
2023/03/27 13:46:27;;;;;;;3.05;0.70;;;;;;;10.59;43.61;100156.25;12211194;19;20016;-84
2023/03/27 13:50:52;;;;;;;2.17;0.50;;;;;;;10.60;40.45;100158.78;12181822;19;20751;-81
2023/03/27 13:55:13;;;;;;;2.30;0.77;;;;;;;10.78;42.47;100157.78;12211725;19;20015;-82
2023/03/27 14:00:09;;;;;;;4.28;0.85;;;;;;;12.28;41.41;100157.53;12197620;19;20023;-81
2023/03/27 14:04:50;;;;;;;2.80;0.80;;;;;;;12.92;40.28;100159.84;12224799;19;20006;-83
2023/03/27 14:09:15;;;;;;;2.45;0.90;;;;;;;12.27;41.55;100145.66;12193452;19;20011;-83
2023/03/27 14:13:47;;;;;;;1.83;0.65;;;;;;;11.51;42.19;100155.38;12212420;19;20006;-83
2023/03/27 14:18:17;;;;;;;1.50;0.90;;;;;;;10.87;45.11;100163.78;12193241;19;20095;-82
2023/03/27 14:22:41;;;;;;;3.78;1.27;;;;;;;10.65;45.93;100166.34;12216716;19;20013;-83
2023/03/27 14:26:44;;;;;;;4.90;1.05;;;;;;;10.48;45.63;100166.22;12203779;19;19995;-84
2023/03/27 14:30:49;;;;;;;1.50;0.82;;;;;;;10.75;43.75;100166.53;12227978;19;20006;-82
2023/03/27 14:35:03;;;;;;;2.72;0.80;;;;;;;11.14;43.19;100175.09;12224571;19;20015;-84
2023/03/27 14:39:26;;;;;;;2.65;0.90;;;;;;;11.52;43.67;100174.44;12200772;19;20006;-81
2023/03/27 14:43:36;;;;;;;1.77;0.65;;;;;;;11.16;44.56;100173.75;12206082;19;20674;-84
2023/03/27 14:47:39;;;;;;;;;;;;;;;10.13;48.50;100199.22;12204437;19;20015;-84
2023/03/27 14:51:41;;;;;;;3.88;1.17;;;;;;;9.17;52.01;100204.66;12231337;19;19915;-79
2023/03/27 14:55:54;;;;;;;2.97;0.80;;;;;;;8.57;56.39;100238.31;12240269;19;20011;-80
2023/03/27 15:00:22;;;;;;;1.55;1.00;;;;;;;7.57;64.67;100251.91;12199496;19;20031;-83
2023/03/27 15:04:26;;;;;;;3.58;1.33;;;;;;;6.68;70.78;100238.97;12216478;19;20009;-79
2023/03/27 15:08:38;;;;;;;2.00;0.80;;;;;;;6.97;72.02;100222.03;12188186;19;20006;-79
2023/03/27 15:12:47;;;;;;;2.75;1.08;;;;;;;7.51;69.73;100217.16;12209322;19;20031;-78
2023/03/27 15:17:01;;;;;;;4.00;1.50;;;;;;;7.88;69.73;100209.94;12238876;19;20034;-79
2023/03/27 15:21:13;;;;;;;2.85;1.00;;;;;;;7.93;68.02;100207.34;12244638;19;20016;-79
2023/03/27 15:25:23;;;;;;;3.95;1.10;;;;;;;7.81;66.69;100203.66;12251344;19;20008;-79
2023/03/27 15:29:45;;;;;;;2.00;0.80;;;;;;;7.85;66.36;100210.41;12201544;19;20011;-80
2023/03/27 15:34:02;;;;;;;1.77;0.90;;;;;;;7.78;65.28;100216.97;12216883;19;20665;-80
2023/03/27 15:38:08;;;;;;;1.10;0.70;;;;;;;7.93;63.27;100220.25;12213379;19;21692;-80
2023/03/27 15:42:13;;;;;;;2.67;1.05;;;;;;;7.94;62.82;100219.16;12187587;19;20010;-80
2023/03/27 15:46:18;;;;;;;2.33;0.98;;;;;;;7.99;62.51;100224.84;12209934;19;20010;-80
2023/03/27 15:50:22;;;;;;;3.20;1.27;;;;;;;8.12;63.64;100246.72;12213723;19;20065;-82
2023/03/27 15:54:30;;;;;;;5.22;1.13;;;;;;;8.11;62.65;100244.16;12194096;19;20535;-81
2023/03/27 15:58:42;;;;;;;4.63;0.80;;;;;;;8.14;60.14;100250.03;12214017;19;20050;-82
2023/03/27 16:02:48;;;;;;;1.38;0.60;;;;;;;7.76;62.29;100250.09;12193362;19;20312;-81
2023/03/27 16:06:53;;;;;;;2.45;0.77;;;;;;;7.71;62.41;100242.56;12217085;19;20494;-80
2023/03/27 16:10:55;;;;;;;1.73;0.88;;;;;;;7.76;62.08;100253.72;12222404;19;19995;-80
2023/03/27 16:14:59;;;;;;;4.15;1.13;;;;;;;7.80;63.47;100259.59;12207635;19;20006;-80
2023/03/27 16:19:08;;;;;;;2.05;0.88;;;;;;;8.00;62.50;100259.44;12207730;19;20011;-79
2023/03/27 16:23:10;;;;;;;3.47;1.27;;;;;;;7.79;63.06;100262.53;12217371;19;20062;-79
2023/03/27 16:27:12;;;;;;;5.88;0.77;;;;;;;8.47;61.00;100259.09;12190219;19;20012;-79
2023/03/27 16:31:16;;;;;;;4.72;0.98;;;;;;;8.34;56.60;100262.78;12214200;19;20019;-80
2023/03/27 16:35:18;;;;;;;3.30;0.68;;;;;;;7.87;53.54;100273.25;12201980;19;20011;-81
2023/03/27 16:39:20;;;;;;;1.23;0.50;;;;;;;7.40;55.00;100276.25;12184407;19;20010;-81
2023/03/27 16:43:22;;;;;;;1.60;0.90;;;;;;;7.16;55.35;100285.19;12199225;19;20011;-81
2023/03/27 16:47:24;;;;;;;1.05;0.70;;;;;;;6.97;55.07;100292.44;12200693;19;20010;-80
2023/03/27 16:51:27;;;;;;;3.03;0.70;;;;;;;6.62;57.19;100282.59;12212608;19;20070;-80
2023/03/27 16:55:29;;;;;;;2.88;0.52;;;;;;;6.48;57.03;100282.81;12215794;19;20023;-81
2023/03/27 16:59:31;;;;;;;1.27;0.70;;;;;;;6.38;56.79;100292.28;12194346;19;20006;-80
2023/03/27 17:03:33;;;;;;;1.52;0.90;;;;;;;6.26;58.22;100301.34;12218210;19;20014;-80
2023/03/27 17:07:40;;;;;;;1.35;0.82;;;;;;;6.33;58.01;100303.00;12217015;19;20389;-80
2023/03/27 17:11:42;;;;;;;2.22;0.70;;;;;;;6.34;58.50;100310.19;12190186;19;20676;-78
2023/03/27 17:15:48;;;;;;;1.40;0.93;;;;;;;6.36;58.97;100323.66;12210896;19;20002;-81
2023/03/27 17:19:50;;;;;;;2.08;1.25;;;;;;;6.36;59.56;100326.41;12215317;19;20002;-80
2023/03/27 17:23:53;;;;;;;3.38;0.80;;;;;;;6.48;59.72;100334.81;12197428;19;20006;-79
2023/03/27 17:27:54;;;;;;;;;;;;;;;6.54;60.29;100343.06;12262577;19;20039;-79
2023/03/27 17:31:59;;;;;;;1.88;0.68;;;;;;;6.72;63.45;100350.63;12249557;19;19986;-77
2023/03/27 17:36:07;;;;;;;2.40;0.60;;;;;;;6.89;66.36;100361.97;12203434;19;20044;-80
2023/03/27 17:40:11;;;;;;;2.63;0.75;;;;;;;6.77;68.08;100366.41;12231757;19;20003;-81
2023/03/27 17:44:14;;;;;;;1.40;0.98;;;;;;;6.25;70.61;100374.41;12209519;19;20031;-79
2023/03/27 17:48:15;;;;;;;1.65;0.95;;;;;;;5.86;73.55;100394.22;12196182;19;20108;-79
2023/03/27 17:52:18;;;;;;;5.10;1.00;;;;;;;5.47;75.56;100393.88;12223392;19;20003;-80
2023/03/27 17:56:20;;;;;;;;;;;;;;;5.25;76.46;100401.31;12229669;19;20088;-79
2023/03/27 18:00:24;;;;;;;3.72;0.93;;;;;;;5.15;76.11;100413.66;12194767;19;19915;-79
2023/03/27 18:04:26;;;;;;;4.82;1.67;;;;;;;5.05;78.77;100424.91;12222741;19;20081;-78
2023/03/27 18:08:27;;;;;;;3.30;0.98;;;;;;;4.96;79.43;100429.66;12206709;19;20014;-77
2023/03/27 18:12:32;;;;;;;2.53;1.00;;;;;;;5.03;81.22;100438.78;12236726;19;20007;-77
2023/03/27 18:16:34;;;;;;;2.10;1.20;;;;;;;5.04;80.50;100431.41;12229822;19;20010;-79
2023/03/27 18:20:37;;;;;;;3.08;1.27;;;;;;;5.09;81.41;100428.13;12201691;19;20006;-80
2023/03/27 18:24:39;;;;;;;3.25;1.20;;;;;;;5.10;81.73;100437.97;12219484;19;20709;-79
2023/03/27 18:28:41;;;;;;;2.90;1.43;;;;;;;5.07;83.55;100436.50;12225627;19;20520;-79
2023/03/27 18:32:44;;;;;;;2.90;1.37;;;;;;;4.95;84.38;100449.84;12202071;19;20020;-79
2023/03/27 18:36:50;;;;;;;3.10;1.42;;;;;;;4.90;87.14;100444.13;12225656;19;20011;-79
2023/03/27 18:40:54;;;;;;;3.13;1.52;;;;;;;4.78;85.94;100448.44;12211229;19;20010;-80
2023/03/27 18:44:56;;;;;;;3.30;1.45;;;;;;;4.66;85.76;100469.94;12192238;19;20293;-77
2023/03/27 18:48:58;;;;;;;2.72;1.52;;;;;;;4.54;86.31;100475.09;12225160;19;20007;-79
2023/03/27 18:53:08;;;;;;;5.97;2.20;;;;;;;4.40;86.96;100472.41;12230848;19;20011;-79
2023/03/27 18:57:10;;;;;;;4.38;1.73;;;;;;;4.28;88.55;100480.25;12205759;19;19999;-79
2023/03/27 19:01:13;;;;;;;5.45;1.98;;;;;;;4.17;89.48;100487.06;12227495;19;20007;-80
2023/03/27 19:05:16;;;;;;;6.88;3.03;;;;;;;4.05;90.32;100478.53;12234116;19;20018;-80
2023/03/27 19:09:18;;;;;;;2.97;1.80;;;;;;;3.98;90.38;100485.78;12203089;19;20062;-78
2023/03/27 19:13:31;;;;;;;2.42;1.50;;;;;;;3.86;91.60;100479.94;12236400;19;20019;-78
2023/03/27 19:17:33;;;;;;;3.13;1.93;;;;;;;3.74;92.34;100484.19;12211616;19;20703;-79
2023/03/27 19:21:50;;;;;;;5.72;2.33;;;;;;;3.64;92.70;100470.03;12216527;19;20039;-79
2023/03/27 19:26:09;;;;;;;2.85;1.60;;;;;;;3.59;92.11;100473.31;12217123;19;20485;-79
2023/03/27 19:30:15;;;;;;;5.13;1.63;;;;;;;3.57;92.86;100469.06;12197414;19;19998;-78